Cowling, Illinois
Current Conditions -  °F | °C
As of 12:35 AM on Thursday 27 Nov 2014 (Local Time) from KAJG Reporting Station
Light Snow Light Snow  
Wind Chill: 27°   Ceiling: 700
Heat Index: 34°   Visibility: 2mi
Dew Point: 32°   Wind: 8mph
Humidity: 93%   Direction: 340°NNW
Pressure: 30.15"   Gusts: NA
Location:  38.4145°N, 87.8638°W
Report Text: KAJG 270635Z AUTO 34007KT 2SM -SN BKN007 OVC012 01/00 A3015 RMK AO2
Loading
Personal Weather Stations






























Interactive Weather Map New forecast layout! Learn more

10-Day Weather Forecast

Advertisements
Track Severe Weather on mobile